Time;durP1;ratioP1;P1;durP2;ratioP2;P2;SDS_P1;SDS_P2;PMS_P1;PMS_P2;Temp;Humidity;BMP_temperature;BMP_pressure;BME280_temperature;BME280_humidity;BME280_pressure;Samples;Min_cycle;Max_cycle;Signal;HPM_P1;HPM_P2
2023/04/20 00:01:24;;;;;;;;;;;;;;;25.72;31.41;100162.06;5096588;28;1201;-29
2023/04/20 00:03:50;;;;;;;;;;;;;;;25.64;31.78;100168.34;5096837;28;1045;-29
2023/04/20 00:06:16;;;;;;;;;;;;;;;25.59;31.93;100170.75;5109954;28;962;-34
2023/04/20 00:08:42;;;;;;;;;;;;;;;25.66;31.72;100162.78;5100809;28;1161;-28
2023/04/20 00:11:08;;;;;;;;;;;;;;;25.66;31.42;100168.16;5100399;28;1089;-29
2023/04/20 00:13:34;;;;;;;;;;;;;;;25.69;31.54;100167.81;5100228;28;1914;-30
2023/04/20 00:15:59;;;;;;;;;;;;;;;25.77;31.37;100166.88;5100989;28;1305;-33
2023/04/20 00:18:25;;;;;;;;;;;;;;;25.51;31.73;100168.16;5103575;28;955;-30
2023/04/20 00:20:50;;;;;;;;;;;;;;;25.80;31.18;100163.81;5109768;28;1050;-29
2023/04/20 00:23:16;;;;;;;;;;;;;;;25.58;31.45;100165.53;5099855;28;1065;-32
2023/04/20 00:25:42;;;;;;;;;;;;;;;25.62;31.35;100162.31;5100046;28;1089;-29
2023/04/20 00:28:07;;;;;;;;;;;;;;;25.70;31.45;100160.56;5100290;28;1090;-32
2023/04/20 00:30:33;;;;;;;;;;;;;;;25.68;31.67;100160.75;5088803;28;1302;-30
2023/04/20 00:32:58;;;;;;;;;;;;;;;25.56;31.92;100163.88;5079735;28;1898;-29
2023/04/20 00:35:24;;;;;;;;;;;;;;;25.70;31.40;100161.41;5079613;28;1108;-32
2023/04/20 00:37:50;;;;;;;;;;;;;;;25.63;31.65;100166.69;5079708;28;1157;-29
2023/04/20 00:40:16;;;;;;;;;;;;;;;25.66;31.53;100158.25;5080268;28;1047;-29
2023/04/20 00:42:42;;;;;;;;;;;;;;;25.78;31.31;100158.59;5081685;28;1105;-28
2023/04/20 00:45:07;;;;;;;;;;;;;;;25.56;31.65;100160.34;5077791;28;1054;-28
2023/04/20 00:47:34;;;;;;;;;;;;;;;25.61;31.68;100162.50;5078312;28;1251;-29
2023/04/20 00:50:01;;;;;;;;;;;;;;;25.64;31.41;100151.38;5078238;28;1326;-30
2023/04/20 00:52:26;;;;;;;;;;;;;;;25.55;31.49;100147.91;5080507;28;1901;-32
2023/04/20 00:54:52;;;;;;;;;;;;;;;25.64;31.43;100141.44;5087890;28;1117;-31
2023/04/20 00:57:18;;;;;;;;;;;;;;;25.47;31.80;100140.78;5079356;28;1129;-31
2023/04/20 00:59:44;;;;;;;;;;;;;;;25.54;31.59;100140.88;5078402;28;1117;-30
2023/04/20 01:02:10;;;;;;;;;;;;;;;25.53;31.63;100140.03;5079318;28;1102;-30
2023/04/20 01:04:35;;;;;;;;;;;;;;;25.66;31.46;100149.31;5080573;28;1047;-34
2023/04/20 01:07:01;;;;;;;;;;;;;;;25.48;31.66;100147.81;5081121;28;1041;-28
2023/04/20 01:09:27;;;;;;;;;;;;;;;25.58;31.60;100138.63;5088455;28;1089;-27
2023/04/20 01:11:53;;;;;;;;;;;;;;;25.53;31.41;100137.34;5081482;28;1971;-28
2023/04/20 01:14:18;;;;;;;;;;;;;;;25.52;31.54;100141.06;5079177;28;1057;-31
2023/04/20 01:16:46;;;;;;;;;;;;;;;25.59;31.70;100141.13;5078468;28;1070;-28
2023/04/20 01:19:11;;;;;;;;;;;;;;;25.58;31.56;100142.16;5089313;28;1057;-28
2023/04/20 01:21:37;;;;;;;;;;;;;;;25.60;31.38;100148.19;5079021;28;1019;-29
2023/04/20 01:24:03;;;;;;;;;;;;;;;25.46;31.50;100143.66;5077524;28;1014;-27
2023/04/20 01:26:31;;;;;;;;;;;;;;;25.65;31.48;100137.72;5078678;28;1201;-31
2023/04/20 01:28:57;;;;;;;;;;;;;;;25.66;31.43;100146.63;5082054;28;1057;-30
2023/04/20 01:31:23;;;;;;;;;;;;;;;25.53;31.68;100137.34;5096037;28;1914;-29
2023/04/20 01:33:49;;;;;;;;;;;;;;;25.50;31.75;100139.56;5099047;28;1085;-32
2023/04/20 01:36:19;;;;;;;;;;;;;;;25.47;31.74;100143.47;5098693;28;1045;-28
2023/04/20 01:38:44;;;;;;;;;;;;;;;25.47;31.70;100143.47;5080770;28;1214;-30
2023/04/20 01:41:10;;;;;;;;;;;;;;;25.33;31.87;100137.06;5098741;28;1217;-33
2023/04/20 01:43:36;;;;;;;;;;;;;;;25.34;31.75;100135.22;5098569;28;1117;-30
2023/04/20 01:46:01;;;;;;;;;;;;;;;25.30;31.89;100129.34;5080137;28;1117;-29
2023/04/20 01:48:27;;;;;;;;;;;;;;;25.27;31.83;100127.88;5080520;28;1188;-28
2023/04/20 01:50:53;;;;;;;;;;;;;;;25.34;31.70;100130.63;5098511;28;1114;-29
2023/04/20 01:53:18;;;;;;;;;;;;;;;25.37;31.76;100133.00;5085232;28;1909;-31
2023/04/20 01:55:46;;;;;;;;;;;;;;;25.34;31.78;100137.91;5082701;28;1018;-28
2023/04/20 01:58:12;;;;;;;;;;;;;;;25.22;31.94;100148.28;5098260;28;1106;-27
2023/04/20 02:00:38;;;;;;;;;;;;;;;25.38;31.47;100142.72;5080583;28;1082;-30
2023/04/20 02:03:05;;;;;;;;;;;;;;;25.31;31.71;100145.31;5089895;28;1067;-31
2023/04/20 02:05:30;;;;;;;;;;;;;;;25.41;31.84;100144.19;5100011;28;1178;-29
2023/04/20 02:07:56;;;;;;;;;;;;;;;25.39;31.58;100147.06;5080058;28;1154;-29
2023/04/20 02:10:22;;;;;;;;;;;;;;;25.39;31.91;100147.06;5079811;28;1185;-28
2023/04/20 02:12:48;;;;;;;;;;;;;;;25.37;31.74;100146.44;5079821;28;1969;-29
2023/04/20 02:15:13;;;;;;;;;;;;;;;25.36;31.92;100144.75;5079835;28;1483;-30
2023/04/20 02:17:40;;;;;;;;;;;;;;;25.24;31.83;100151.63;5103646;28;1082;-28
2023/04/20 02:20:08;;;;;;;;;;;;;;;25.25;31.98;100153.31;5101210;28;1244;-29
2023/04/20 02:22:34;;;;;;;;;;;;;;;25.36;31.78;100147.44;5079874;28;1103;-29
2023/04/20 02:25:00;;;;;;;;;;;;;;;25.38;31.68;100147.25;5080032;28;1162;-29
2023/04/20 02:27:26;;;;;;;;;;;;;;;25.25;31.69;100138.00;5097801;28;1071;-29
2023/04/20 02:29:52;;;;;;;;;;;;;;;25.28;31.69;100144.84;5100263;28;1131;-31
2023/04/20 02:32:18;;;;;;;;;;;;;;;25.28;31.91;100136.78;5079679;28;1973;-28
2023/04/20 02:34:43;;;;;;;;;;;;;;;25.21;32.07;100138.56;5097832;28;1070;-29
2023/04/20 02:37:09;;;;;;;;;;;;;;;25.27;31.69;100137.81;5097657;28;1204;-31
2023/04/20 02:39:34;;;;;;;;;;;;;;;25.34;31.79;100138.72;5079281;28;1054;-28
2023/04/20 02:42:00;;;;;;;;;;;;;;;25.32;31.65;100135.41;5104707;28;1142;-29
2023/04/20 02:44:27;;;;;;;;;;;;;;;25.31;31.53;100131.88;5082172;28;1374;-30
2023/04/20 02:46:53;;;;;;;;;;;;;;;25.34;31.53;100135.22;5097500;28;1123;-31
2023/04/20 02:49:20;;;;;;;;;;;;;;;25.27;31.55;100127.88;5079186;28;1133;-28
2023/04/20 02:51:46;;;;;;;;;;;;;;;25.27;31.83;100130.56;5079285;28;1971;-30
2023/04/20 02:54:11;;;;;;;;;;;;;;;25.32;31.75;100130.00;5097333;28;1137;-30
2023/04/20 02:56:37;;;;;;;;;;;;;;;25.33;31.55;100128.97;5097496;28;1047;-29
2023/04/20 02:59:07;;;;;;;;;;;;;;;25.39;31.70;100128.22;5078687;28;1145;-28
2023/04/20 03:02:01;;;;;;;;;;;;;;;25.36;31.94;100128.59;5088006;28;1326;-32
2023/04/20 03:04:29;;;;;;;;;;;;;;;25.39;31.46;100130.09;5086943;28;1289;-29
2023/04/20 03:07:09;;;;;;;;;;;;;;;25.32;31.64;100124.63;5094435;28;1594;-35
2023/04/20 03:09:36;;;;;;;;;;;;;;;25.49;31.57;100124.44;5083206;28;1146;-27
2023/04/20 03:12:21;;;;;;;;;;;;;;;25.35;32.05;100131.50;5097759;28;1913;-28
2023/04/20 03:14:46;;;;;;;;;;;;;;;25.11;32.72;100130.75;5097110;28;1209;-29
2023/04/20 03:17:13;;;;;;;;;;;;;;;26.02;31.27;100132.34;5079042;28;1311;-28
2023/04/20 03:19:40;;;;;;;;;;;;;;;25.08;30.70;100123.88;5083980;28;1107;-29
2023/04/20 03:22:05;;;;;;;;;;;;;;;24.75;31.78;100129.53;5096890;28;1221;-28
2023/04/20 03:24:32;;;;;;;;;;;;;;;24.11;31.56;100129.66;5078671;28;1280;-26
2023/04/20 03:27:02;;;;;;;;;;;;;;;23.94;31.73;100123.56;5078819;28;1331;-30
2023/04/20 03:29:42;;;;;;;;;;;;;;;23.72;32.50;100123.34;5079914;28;1206;-26
2023/04/20 03:32:08;;;;;;;;;;;;;;;24.07;32.03;100121.09;5078442;28;1922;-26
2023/04/20 03:34:33;;;;;;;;;;;;;;;24.07;31.93;100118.41;5078975;28;1141;-26
2023/04/20 03:36:59;;;;;;;;;;;;;;;24.02;32.17;100118.16;5078545;28;1153;-26
2023/04/20 03:39:24;;;;;;;;;;;;;;;23.70;32.66;100120.00;5096103;28;1130;-30
2023/04/20 03:41:50;;;;;;;;;;;;;;;23.40;33.43;100135.88;5098883;28;1022;-27
2023/04/20 03:44:16;;;;;;;;;;;;;;;22.16;35.65;100126.84;5103557;28;1104;-28
2023/04/20 03:46:41;;;;;;;;;;;;;;;22.50;35.56;100125.91;5096476;28;1154;-30
2023/04/20 03:49:07;;;;;;;;;;;;;;;22.26;36.46;100116.81;5096507;28;1229;-26
2023/04/20 03:51:32;;;;;;;;;;;;;;;22.37;35.50;100115.66;5078396;28;1975;-28
2023/04/20 03:53:58;;;;;;;;;;;;;;;22.65;35.22;100127.94;5104207;28;1173;-30
2023/04/20 03:56:25;;;;;;;;;;;;;;;23.52;33.84;100125.59;5105592;28;1068;-29
2023/04/20 03:58:51;;;;;;;;;;;;;;;23.22;33.85;100126.19;5078422;28;1342;-28
2023/04/20 04:01:21;;;;;;;;;;;;;;;23.51;33.45;100130.13;5078469;28;1177;-31
2023/04/20 04:03:48;;;;;;;;;;;;;;;22.91;34.43;100118.84;5078448;28;1103;-29
2023/04/20 04:06:13;;;;;;;;;;;;;;;23.46;33.53;100125.28;5082016;28;1224;-29
2023/04/20 04:08:39;;;;;;;;;;;;;;;23.08;34.14;100128.56;5096863;28;1272;-31
2023/04/20 04:11:05;;;;;;;;;;;;;;;22.66;34.94;100129.59;5096600;28;1240;-28
2023/04/20 04:13:31;;;;;;;;;;;;;;;23.15;33.65;100131.38;5078315;28;1898;-28
2023/04/20 04:15:57;;;;;;;;;;;;;;;23.50;32.87;100128.47;5078462;28;1205;-30
2023/04/20 04:18:22;;;;;;;;;;;;;;;23.69;32.82;100131.75;5082308;28;1372;-29
2023/04/20 04:20:50;;;;;;;;;;;;;;;24.46;31.36;100135.50;5085229;28;1193;-32
2023/04/20 04:23:15;;;;;;;;;;;;;;;23.85;32.66;100128.97;5078268;28;1181;-30
2023/04/20 04:25:44;;;;;;;;;;;;;;;25.32;30.77;100138.09;5077859;28;1254;-28
2023/04/20 04:28:13;;;;;;;;;;;;;;;26.40;28.91;100125.06;5078439;28;1214;-30
2023/04/20 04:30:46;;;;;;;;;;;;;;;25.64;29.36;100132.53;5084471;28;1106;-28
2023/04/20 04:33:13;;;;;;;;;;;;;;;24.36;31.58;100134.91;5097981;28;1969;-35
2023/04/20 04:35:42;;;;;;;;;;;;;;;25.89;30.09;100145.69;5078018;28;1323;-32
2023/04/20 04:38:10;;;;;;;;;;;;;;;26.90;28.56;100143.13;5078122;28;1130;-28
2023/04/20 04:40:36;;;;;;;;;;;;;;;25.42;29.89;100149.41;5077943;28;1226;-29
2023/04/20 04:43:03;;;;;;;;;;;;;;;24.99;30.88;100152.72;5080367;28;1148;-29
2023/04/20 04:45:29;;;;;;;;;;;;;;;26.43;29.34;100154.34;5078323;28;1158;-30
2023/04/20 04:47:55;;;;;;;;;;;;;;;26.83;27.93;100151.16;5096029;28;1137;-31
2023/04/20 04:50:22;;;;;;;;;;;;;;;24.72;31.34;100163.03;5078211;28;1448;-31
2023/04/20 04:52:48;;;;;;;;;;;;;;;25.68;30.90;100152.66;5099083;28;1902;-29
2023/04/20 04:55:13;;;;;;;;;;;;;;;26.74;28.61;100149.63;5108810;28;1057;-32
2023/04/20 04:57:39;;;;;;;;;;;;;;;26.72;28.19;100149.00;5114516;28;1212;-29
2023/04/20 05:00:11;;;;;;;;;;;;;;;25.96;30.04;100159.22;5099473;28;1185;-28
2023/04/20 05:02:37;;;;;;;;;;;;;;;27.04;28.67;100156.72;5099721;28;963;-31
2023/04/20 05:05:02;;;;;;;;;;;;;;;28.00;27.22;100151.63;5099322;28;1155;-30
2023/04/20 05:07:28;;;;;;;;;;;;;;;27.45;28.52;100155.09;5102105;28;1059;-30
2023/04/20 05:09:54;;;;;;;;;;;;;;;26.93;28.82;100152.66;5099567;28;1154;-32
2023/04/20 05:12:19;;;;;;;;;;;;;;;27.92;27.20;100159.91;5099078;28;1905;-29
2023/04/20 05:14:45;;;;;;;;;;;;;;;28.41;26.64;100163.38;5099421;28;1138;-29
2023/04/20 05:17:10;;;;;;;;;;;;;;;27.62;28.04;100166.41;5099647;28;1144;-32
2023/04/20 05:19:36;;;;;;;;;;;;;;;27.17;28.43;100164.09;5109098;28;1137;-30
2023/04/20 05:22:01;;;;;;;;;;;;;;;28.07;27.12;100165.16;5099138;28;1112;-28
2023/04/20 05:24:27;;;;;;;;;;;;;;;28.70;26.34;100163.19;5098681;28;1062;-29
2023/04/20 05:26:52;;;;;;;;;;;;;;;27.30;28.02;100157.94;5099164;28;1043;-29
2023/04/20 05:29:18;;;;;;;;;;;;;;;26.84;28.79;100163.59;5098444;28;1125;-29
2023/04/20 05:31:44;;;;;;;;;;;;;;;28.28;26.81;100158.75;5102730;28;1986;-29
2023/04/20 05:34:10;;;;;;;;;;;;;;;28.69;26.23;100165.06;5099186;28;1161;-31
2023/04/20 05:36:36;;;;;;;;;;;;;;;27.42;27.79;100159.06;5098908;28;1204;-29
2023/04/20 05:39:01;;;;;;;;;;;;;;;27.23;28.02;100171.38;5099309;28;1110;-26
2023/04/20 05:41:27;;;;;;;;;;;;;;;28.35;26.66;100165.03;5098426;28;1066;-29
2023/04/20 05:43:53;;;;;;;;;;;;;;;28.74;26.01;100169.84;5109851;28;1149;-33
2023/04/20 05:46:19;;;;;;;;;;;;;;;27.90;26.96;100175.47;5098861;28;1200;-31
2023/04/20 05:48:44;;;;;;;;;;;;;;;26.98;28.43;100172.66;5098692;28;1101;-29
2023/04/20 05:51:10;;;;;;;;;;;;;;;28.01;27.22;100180.31;5098215;28;1058;-31
2023/04/20 05:53:36;;;;;;;;;;;;;;;28.70;25.51;100176.72;5098658;28;1983;-32
2023/04/20 05:56:02;;;;;;;;;;;;;;;28.04;26.37;100177.22;5103746;28;1007;-29
2023/04/20 05:58:27;;;;;;;;;;;;;;;27.14;27.85;100176.94;5098515;28;1101;-31
2023/04/20 06:00:53;;;;;;;;;;;;;;;27.22;27.92;100183.22;5098160;28;1138;-28
2023/04/20 06:03:19;;;;;;;;;;;;;;;27.07;28.74;100176.06;5098349;28;1109;-29
2023/04/20 06:05:44;;;;;;;;;;;;;;;26.75;29.23;100178.28;5098807;28;1198;-28
2023/04/20 06:08:10;;;;;;;;;;;;;;;28.22;27.00;100179.34;5110322;28;1201;-29
2023/04/20 06:10:36;;;;;;;;;;;;;;;28.43;26.80;100179.38;5098179;28;1227;-31
2023/04/20 06:13:01;;;;;;;;;;;;;;;28.46;26.54;100177.09;5098251;28;1905;-32
2023/04/20 06:15:27;;;;;;;;;;;;;;;27.70;27.93;100171.69;5098076;28;1150;-28
2023/04/20 06:17:53;;;;;;;;;;;;;;;27.93;27.64;100169.66;5098407;28;1069;-30
2023/04/20 06:20:19;;;;;;;;;;;;;;;28.54;26.52;100176.09;5104283;28;1500;-29
2023/04/20 06:22:45;;;;;;;;;;;;;;;27.87;27.67;100168.63;5098153;28;1144;-29
2023/04/20 06:25:10;;;;;;;;;;;;;;;28.09;27.53;100169.31;5097613;28;1070;-30
2023/04/20 06:27:36;;;;;;;;;;;;;;;28.67;26.43;100167.16;5098479;28;1066;-29
2023/04/20 06:30:02;;;;;;;;;;;;;;;28.52;26.66;100161.94;5098305;28;1233;-30
2023/04/20 06:32:28;;;;;;;;;;;;;;;28.21;27.18;100163.31;5097295;28;1976;-28
2023/04/20 06:34:54;;;;;;;;;;;;;;;28.17;27.28;100171.00;5097905;28;1078;-30
2023/04/20 06:37:19;;;;;;;;;;;;;;;28.03;27.28;100172.03;5097810;28;1118;-30
2023/04/20 06:39:45;;;;;;;;;;;;;;;27.93;27.48;100173.22;5079437;28;1162;-31
2023/04/20 06:42:11;;;;;;;;;;;;;;;28.39;26.99;100172.75;5097682;28;1085;-29
2023/04/20 06:44:39;;;;;;;;;;;;;;;28.17;27.18;100173.72;5088201;28;1154;-28
2023/04/20 06:47:05;;;;;;;;;;;;;;;27.92;27.59;100166.16;5097544;28;1150;-28
2023/04/20 06:49:30;;;;;;;;;;;;;;;28.35;27.00;100165.03;5097532;28;1026;-28
2023/04/20 06:51:56;;;;;;;;;;;;;;;28.18;26.82;100167.25;5098071;28;1882;-30
2023/04/20 06:54:21;;;;;;;;;;;;;;;27.86;27.26;100172.38;5097457;28;1133;-28
2023/04/20 06:56:47;;;;;;;;;;;;;;;28.36;26.87;100169.41;5099184;28;959;-31
2023/04/20 06:59:15;;;;;;;;;;;;;;;28.12;27.07;100173.50;5096865;28;1078;-34
2023/04/20 07:01:40;;;;;;;;;;;;;;;27.72;27.89;100179.59;5079085;28;1146;-30
2023/04/20 07:04:06;;;;;;;;;;;;;;;28.27;27.12;100172.47;5097388;28;999;-28
2023/04/20 07:06:32;;;;;;;;;;;;;;;28.02;27.39;100178.44;5108916;28;1046;-32
2023/04/20 07:08:57;;;;;;;;;;;;;;;27.68;27.86;100175.56;5091159;28;1046;-29
2023/04/20 07:11:23;;;;;;;;;;;;;;;28.13;27.40;100185.16;5097143;28;1073;-31
2023/04/20 07:13:49;;;;;;;;;;;;;;;28.07;27.45;100184.06;5096416;28;1909;-31
2023/04/20 07:16:15;;;;;;;;;;;;;;;27.83;27.37;100178.16;5097065;28;1074;-30
2023/04/20 07:18:40;;;;;;;;;;;;;;;28.34;26.99;100181.47;5097016;28;1094;-30
2023/04/20 07:21:06;;;;;;;;;;;;;;;28.42;27.03;100183.16;5100706;28;931;-31
2023/04/20 07:23:31;;;;;;;;;;;;;;;28.55;26.50;100183.16;5096868;28;1063;-30
2023/04/20 07:25:57;;;;;;;;;;;;;;;28.29;26.74;100182.06;5096819;28;1101;-30
2023/04/20 07:28:23;;;;;;;;;;;;;;;28.42;26.92;100181.28;5096924;28;1038;-29
2023/04/20 07:30:48;;;;;;;;;;;;;;;28.81;25.93;100180.69;5096552;28;1050;-31
2023/04/20 07:33:14;;;;;;;;;;;;;;;28.31;26.73;100179.97;5107285;28;1918;-28
2023/04/20 07:35:41;;;;;;;;;;;;;;;28.28;26.85;100191.19;5096506;28;1114;-31
2023/04/20 07:38:07;;;;;;;;;;;;;;;28.16;27.10;100195.56;5096333;28;1062;-28
2023/04/20 07:40:32;;;;;;;;;;;;;;;28.06;26.86;100193.22;5096258;28;1054;-27
2023/04/20 07:42:58;;;;;;;;;;;;;;;28.41;26.93;100193.13;5078553;28;1268;-29
2023/04/20 07:45:23;;;;;;;;;;;;;;;28.34;26.62;100193.09;5100675;28;873;-27
2023/04/20 07:47:51;;;;;;;;;;;;;;;27.98;27.24;100192.38;5095808;28;1213;-29
2023/04/20 07:50:16;;;;;;;;;;;;;;;28.22;26.91;100190.16;5096442;28;1105;-33
2023/04/20 07:52:44;;;;;;;;;;;;;;;28.39;26.91;100191.69;5096403;28;1914;-30
2023/04/20 07:55:14;;;;;;;;;;;;;;;28.01;27.21;100185.72;5096016;28;1124;-30
2023/04/20 07:57:41;;;;;;;;;;;;;;;28.05;27.43;100181.59;5108383;28;1213;-28
2023/04/20 08:00:08;;;;;;;;;;;;;;;28.34;27.04;100198.50;5096205;28;1026;-28
2023/04/20 08:02:42;;;;;;;;;;;;;;;27.96;27.51;100188.22;5096534;28;987;-28
2023/04/20 08:05:11;;;;;;;;;;;;;;;28.28;27.22;100191.19;5096107;28;1117;-31
2023/04/20 08:07:37;;;;;;;;;;;;;;;28.38;27.86;100198.94;5095973;28;1137;-27
2023/04/20 08:10:03;;;;;;;;;;;;;;;28.27;27.25;100183.28;5096028;28;870;-30
2023/04/20 08:12:29;;;;;;;;;;;;;;;28.38;27.44;100187.31;5095858;28;1969;-30
2023/04/20 08:14:58;;;;;;;;;;;;;;;28.56;26.85;100194.84;5096291;28;1158;-32
2023/04/20 08:17:24;;;;;;;;;;;;;;;28.34;27.05;100193.09;5096328;28;1062;-34
2023/04/20 08:19:49;;;;;;;;;;;;;;;28.36;27.24;100187.53;5096725;28;1018;-34
2023/04/20 08:22:15;;;;;;;;;;;;;;;28.65;26.94;100177.34;5107223;28;1205;-31
2023/04/20 08:24:41;;;;;;;;;;;;;;;28.35;27.36;100178.56;5095746;28;1125;-29
2023/04/20 08:27:07;;;;;;;;;;;;;;;28.14;27.76;100184.94;5099824;28;1137;-29
2023/04/20 08:29:32;;;;;;;;;;;;;;;28.68;27.20;100190.44;5099982;28;1117;-30
2023/04/20 08:31:58;;;;;;;;;;;;;;;28.60;26.97;100183.38;5100380;28;1906;-29
2023/04/20 08:34:24;;;;;;;;;;;;;;;28.01;27.86;100184.91;5118461;28;1058;-30
2023/04/20 08:36:50;;;;;;;;;;;;;;;28.69;27.01;100188.59;5099884;28;1058;-34
2023/04/20 08:39:18;;;;;;;;;;;;;;;28.71;26.76;100187.31;5099542;28;1117;-31
2023/04/20 08:41:43;;;;;;;;;;;;;;;28.25;27.85;100178.09;5099926;28;1042;-33
2023/04/20 08:44:09;;;;;;;;;;;;;;;28.63;27.31;100175.91;5099894;28;1126;-29
2023/04/20 08:46:34;;;;;;;;;;;;;;;28.86;26.84;100183.59;5099571;28;1169;-31
2023/04/20 08:49:03;;;;;;;;;;;;;;;28.47;27.33;100180.66;5099433;28;1041;-31
2023/04/20 08:51:29;;;;;;;;;;;;;;;28.28;27.41;100183.09;5099742;28;1038;-31
2023/04/20 08:53:55;;;;;;;;;;;;;;;28.75;27.12;100178.78;5099641;28;1910;-30
2023/04/20 08:56:39;;;;;;;;;;;;;;;28.98;26.58;100175.69;5101942;28;1070;-28
2023/04/20 08:59:08;;;;;;;;;;;;;;;28.11;28.00;100182.66;5101443;28;1110;-31
2023/04/20 09:01:34;;;;;;;;;;;;;;;28.53;27.40;100179.81;5099076;28;1046;-31
2023/04/20 09:04:00;;;;;;;;;;;;;;;28.89;27.07;100182.34;5099091;28;1020;-32
2023/04/20 09:06:26;;;;;;;;;;;;;;;28.53;27.26;100177.13;5099267;28;1026;-29
2023/04/20 09:08:53;;;;;;;;;;;;;;;28.17;28.00;100184.53;5100584;28;1152;-29
2023/04/20 09:11:25;;;;;;;;;;;;;;;28.71;27.12;100181.09;5099622;28;1031;-32
2023/04/20 09:14:01;;;;;;;;;;;;;;;28.80;26.93;100187.97;5112173;28;1909;-30
2023/04/20 09:16:26;;;;;;;;;;;;;;;28.63;27.23;100179.41;5098722;28;1196;-30
2023/04/20 09:18:53;;;;;;;;;;;;;;;28.61;27.39;100176.09;5099157;28;1149;-33
2023/04/20 09:21:19;;;;;;;;;;;;;;;29.09;26.68;100185.88;5107505;28;1058;-31
2023/04/20 09:23:54;;;;;;;;;;;;;;;28.86;26.97;100178.19;5098926;28;1125;-33
2023/04/20 09:26:19;;;;;;;;;;;;;;;28.25;27.79;100175.38;5098602;28;1137;-29
2023/04/20 09:28:46;;;;;;;;;;;;;;;28.58;27.51;100168.38;5098796;28;1145;-30
2023/04/20 09:31:20;;;;;;;;;;;;;;;28.90;27.07;100184.00;5098483;28;1148;-29
2023/04/20 09:33:55;;;;;;;;;;;;;;;28.85;26.98;100180.06;5101195;28;1970;-30
2023/04/20 09:36:21;;;;;;;;;;;;;;;28.25;28.04;100186.19;5098116;28;1029;-31
2023/04/20 09:38:47;;;;;;;;;;;;;;;28.52;27.73;100186.28;5098123;28;1101;-31
2023/04/20 09:41:13;;;;;;;;;;;;;;;28.99;27.28;100198.19;5098982;28;1051;-30
2023/04/20 09:43:38;;;;;;;;;;;;;;;28.93;26.78;100189.00;5080333;28;1059;-29
2023/04/20 09:46:04;;;;;;;;;;;;;;;28.57;27.53;100191.91;5090427;28;1106;-29
2023/04/20 09:48:30;;;;;;;;;;;;;;;28.68;27.63;100192.31;5098488;28;1112;-30
2023/04/20 09:50:55;;;;;;;;;;;;;;;29.02;27.03;100179.66;5098285;28;1103;-29
2023/04/20 09:53:21;;;;;;;;;;;;;;;28.93;27.00;100189.81;5080197;28;1967;-33
2023/04/20 09:55:50;;;;;;;;;;;;;;;28.44;27.84;100187.31;5098229;28;1077;-31
2023/04/20 09:58:19;;;;;;;;;;;;;;;28.49;27.73;100189.41;5102449;28;880;-29
2023/04/20 10:00:45;;;;;;;;;;;;;;;29.17;26.81;100186.72;5097811;28;1259;-30
2023/04/20 10:03:11;;;;;;;;;;;;;;;28.52;27.25;100189.00;5098218;28;1002;-32
2023/04/20 10:05:38;;;;;;;;;;;;;;;28.17;27.58;100183.69;5097941;28;1050;-30
2023/04/20 10:08:04;;;;;;;;;;;;;;;28.62;27.26;100185.88;5098776;28;1136;-31
2023/04/20 10:10:30;;;;;;;;;;;;;;;28.47;27.31;100184.22;5109494;28;1154;-27
2023/04/20 10:12:58;;;;;;;;;;;;;;;28.12;27.82;100189.72;5098382;28;1906;-31
2023/04/20 10:15:26;;;;;;;;;;;;;;;28.42;27.70;100178.56;5097974;28;1495;-32
2023/04/20 10:17:52;;;;;;;;;;;;;;;28.47;27.25;100180.66;5079807;28;1425;-31
2023/04/20 10:20:19;;;;;;;;;;;;;;;28.07;27.72;100175.97;5098294;28;1039;-29
2023/04/20 10:22:44;;;;;;;;;;;;;;;28.06;28.03;100183.22;5103122;28;898;-31
2023/04/20 10:25:14;;;;;;;;;;;;;;;28.70;27.03;100184.84;5097482;28;1095;-30
2023/04/20 10:27:39;;;;;;;;;;;;;;;28.04;27.91;100189.91;5097812;28;1055;-34
2023/04/20 10:30:09;;;;;;;;;;;;;;;27.82;28.40;100190.84;5097451;28;1201;-30
2023/04/20 10:32:34;;;;;;;;;;;;;;;28.73;27.13;100192.53;5079786;28;1906;-32
2023/04/20 10:35:03;;;;;;;;;;;;;;;28.04;27.85;100190.75;5109160;28;1422;-30
2023/04/20 10:37:30;;;;;;;;;;;;;;;27.84;28.13;100191.47;5097336;28;1132;-31
2023/04/20 10:39:56;;;;;;;;;;;;;;;28.52;27.19;100194.41;5097408;28;1154;-29
2023/04/20 10:42:21;;;;;;;;;;;;;;;27.98;27.85;100192.38;5097379;28;1031;-30
2023/04/20 10:44:51;;;;;;;;;;;;;;;27.78;28.17;100194.97;5097983;28;1098;-32
2023/04/20 10:47:17;;;;;;;;;;;;;;;28.64;27.23;100199.19;5097099;28;958;-29
2023/04/20 10:49:43;;;;;;;;;;;;;;;27.98;27.93;100192.38;5096055;28;1105;-31
2023/04/20 10:52:08;;;;;;;;;;;;;;;27.80;28.02;100183.97;5096779;28;1907;-30
2023/04/20 10:54:40;;;;;;;;;;;;;;;28.73;27.00;100187.97;5096974;28;1074;-29
2023/04/20 10:57:06;;;;;;;;;;;;;;;28.01;27.69;100183.00;5097834;28;1070;-35
2023/04/20 10:59:33;;;;;;;;;;;;;;;27.93;28.25;100185.88;5109139;28;998;-32
2023/04/20 11:02:00;;;;;;;;;;;;;;;28.71;27.09;100179.22;5096812;28;1114;-30
2023/04/20 11:04:29;;;;;;;;;;;;;;;28.02;28.05;100182.00;5096608;28;1078;-30
2023/04/20 11:07:02;;;;;;;;;;;;;;;27.83;28.08;100180.88;5096865;28;1113;-31
2023/04/20 11:09:28;;;;;;;;;;;;;;;28.67;27.26;100177.97;5100067;28;1049;-33
2023/04/20 11:12:20;;;;;;;;;;;;;;;28.04;27.91;100181.78;5100192;28;1971;-30
2023/04/20 11:14:54;;;;;;;;;;;;;;;27.73;28.12;100181.25;5094112;28;1553;-31
2023/04/20 11:17:31;;;;;;;;;;;;;;;28.65;26.96;100184.63;5097138;28;1073;-31
2023/04/20 11:20:07;;;;;;;;;;;;;;;28.08;28.00;100177.63;5096541;28;1033;-32
2023/04/20 11:22:33;;;;;;;;;;;;;;;27.81;27.98;100183.78;5096392;28;863;-31
2023/04/20 11:25:04;;;;;;;;;;;;;;;28.81;26.92;100189.63;5078463;28;1050;-32
2023/04/20 11:27:30;;;;;;;;;;;;;;;28.17;27.75;100186.38;5096489;28;1079;-32
2023/04/20 11:29:57;;;;;;;;;;;;;;;27.84;28.36;100186.06;5096171;28;1043;-30
2023/04/20 11:32:22;;;;;;;;;;;;;;;28.82;27.09;100190.47;5096730;28;1955;-28
2023/04/20 11:34:48;;;;;;;;;;;;;;;28.15;27.35;100183.91;5104849;28;1078;-31
2023/04/20 11:37:13;;;;;;;;;;;;;;;27.90;28.14;100183.59;5078183;28;1207;-30
2023/04/20 11:39:40;;;;;;;;;;;;;;;28.67;27.18;100171.72;5109820;28;1094;-31
2023/04/20 11:42:05;;;;;;;;;;;;;;;28.11;27.71;100172.66;5096668;28;1082;-32
2023/04/20 11:44:31;;;;;;;;;;;;;;;27.84;28.04;100177.97;5096241;28;1071;-30
2023/04/20 11:46:57;;;;;;;;;;;;;;;28.71;27.00;100175.69;5098562;28;928;-33
2023/04/20 11:49:23;;;;;;;;;;;;;;;28.20;27.62;100172.47;5100881;28;1065;-33
2023/04/20 11:51:49;;;;;;;;;;;;;;;27.86;28.00;100175.09;5105399;28;1898;-33
2023/04/20 11:54:14;;;;;;;;;;;;;;;28.53;27.41;100171.72;5096266;28;1050;-31
2023/04/20 11:56:43;;;;;;;;;;;;;;;28.28;27.29;100168.75;5096569;28;1039;-32
2023/04/20 11:59:09;;;;;;;;;;;;;;;27.87;28.06;100169.47;5106399;28;1117;-32
2023/04/20 12:01:35;;;;;;;;;;;;;;;28.45;27.57;100178.16;5099444;28;1219;-32
2023/04/20 12:04:01;;;;;;;;;;;;;;;28.28;27.21;100171.44;5100079;28;1126;-34
2023/04/20 12:06:27;;;;;;;;;;;;;;;27.84;28.04;100174.44;5100788;28;1018;-35
2023/04/20 12:08:54;;;;;;;;;;;;;;;28.36;27.62;100179.41;5100356;28;1018;-30
2023/04/20 12:11:20;;;;;;;;;;;;;;;28.35;27.33;100173.16;5104111;28;859;-32
2023/04/20 12:13:45;;;;;;;;;;;;;;;27.87;27.92;100179.44;5099839;28;2016;-33
2023/04/20 12:16:11;;;;;;;;;;;;;;;28.31;27.90;100171.84;5100352;28;1030;-33
2023/04/20 12:18:37;;;;;;;;;;;;;;;28.24;27.36;100174.53;5100029;28;1175;-31
2023/04/20 12:21:02;;;;;;;;;;;;;;;27.83;28.21;100172.75;5100006;28;1058;-31
2023/04/20 12:23:28;;;;;;;;;;;;;;;28.29;27.68;100167.69;5111452;28;1189;-29
2023/04/20 12:25:53;;;;;;;;;;;;;;;28.35;27.12;100173.16;5099811;28;1101;-31
2023/04/20 12:28:19;;;;;;;;;;;;;;;27.83;27.76;100175.47;5100278;28;1190;-29
2023/04/20 12:30:45;;;;;;;;;;;;;;;27.95;28.15;100173.84;5099729;28;1172;-31
2023/04/20 12:33:10;;;;;;;;;;;;;;;28.20;27.33;100177.88;5099466;28;1981;-31
2023/04/20 12:35:36;;;;;;;;;;;;;;;27.87;28.06;100182.16;5103988;28;848;-31
2023/04/20 12:38:01;;;;;;;;;;;;;;;28.05;28.02;100175.31;5099691;28;1077;-32
2023/04/20 12:40:27;;;;;;;;;;;;;;;28.33;26.95;100169.81;5099876;28;1190;-34
2023/04/20 12:42:52;;;;;;;;;;;;;;;27.82;28.02;100176.50;5099789;28;1158;-31
2023/04/20 12:45:18;;;;;;;;;;;;;;;27.84;28.19;100169.03;5099795;28;1117;-32